Time,TemperatureF,DewpointF,PressureIn,WindDirection,WindDirectionDegrees,WindSpeedMPH,WindSpeedGustMPH,Humidity,HourlyPrecipIn,Conditions,Clouds,dailyrainin,SoftwareType,DateUTC
2013-09-11 00:00:00,77.9,76.4,30.08,North,32767,0.0,0.0,95,0.00,,,0.00,Wunderground v.1.15,2013-09-11 05:00:00,
2013-09-11 00:05:00,77.7,76.2,30.07,North,32767,0.0,0.0,95,0.00,,,0.00,Wunderground v.1.15,2013-09-11 05:05:00,
2013-09-11 00:10:00,77.5,76.0,30.07,North,32767,0.0,0.0,95,0.00,,,0.00,Wunderground v.1.15,2013-09-11 05:10:00,
2013-09-11 00:15:00,77.4,75.9,30.07,North,32767,0.0,0.0,95,0.00,,,0.00,Wunderground v.1.15,2013-09-11 05:15:00,
2013-09-11 00:20:00,77.3,75.8,30.07,North,32767,0.0,0.0,95,0.00,,,0.00,Wunderground v.1.15,2013-09-11 05:20:00,
2013-09-11 00:25:00,77.1,75.6,30.07,North,32767,0.0,0.0,95,0.00,,,0.00,Wunderground v.1.15,2013-09-11 05:25:00,
2013-09-11 00:30:00,77.0,75.5,30.07,North,32767,0.0,0.0,95,0.00,,,0.00,Wunderground v.1.15,2013-09-11 05:30:00,
2013-09-11 00:35:00,77.0,75.8,30.07,North,32767,0.0,0.0,96,0.00,,,0.00,Wunderground v.1.15,2013-09-11 05:35:00,
2013-09-11 00:40:00,77.0,75.8,30.07,North,32767,0.0,0.0,96,0.00,,,0.00,Wunderground v.1.15,2013-09-11 05:40:00,
2013-09-11 00:45:00,77.0,75.5,30.07,North,32767,0.0,0.0,95,0.00,,,0.00,Wunderground v.1.15,2013-09-11 05:45:00,
2013-09-11 00:50:00,77.1,75.6,30.07,North,32767,0.0,0.0,95,0.00,,,0.00,Wunderground v.1.15,2013-09-11 05:50:00,
2013-09-11 00:55:00,77.2,75.7,30.07,North,32767,0.0,0.0,95,0.00,,,0.00,Wunderground v.1.15,2013-09-11 05:55:00,
2013-09-11 01:00:00,77.2,75.7,30.07,North,32767,0.0,0.0,95,0.00,,,0.00,Wunderground v.1.15,2013-09-11 06:00:00,
2013-09-11 01:05:00,77.4,75.9,30.06,North,32767,0.0,0.0,95,0.00,,,0.00,Wunderground v.1.15,2013-09-11 06:05:00,
2013-09-11 01:15:00,77.8,75.9,30.06,North,32767,0.0,0.0,94,0.00,,,0.00,Wunderground v.1.15,2013-09-11 06:15:00,
2013-09-11 01:20:00,77.9,76.0,30.06,North,32767,0.0,0.0,94,0.00,,,0.00,Wunderground v.1.15,2013-09-11 06:20:00,
2013-09-11 01:25:00,77.8,75.9,30.06,North,32767,0.0,0.0,94,0.00,,,0.00,Wunderground v.1.15,2013-09-11 06:25:00,
2013-09-11 01:35:00,77.6,76.1,30.06,North,32767,0.0,0.0,95,0.00,,,0.00,Wunderground v.1.15,2013-09-11 06:35:00,
2013-09-11 01:40:00,77.4,75.9,30.06,North,32767,0.0,0.0,95,0.00,,,0.00,Wunderground v.1.15,2013-09-11 06:40:00,
2013-09-11 01:45:00,77.2,75.7,30.05,North,32767,0.0,0.0,95,0.00,,,0.00,Wunderground v.1.15,2013-09-11 06:45:00,
2013-09-11 01:50:00,76.9,75.4,30.06,North,32767,0.0,0.0,95,0.00,,,0.00,Wunderground v.1.15,2013-09-11 06:50:00,
2013-09-11 01:55:00,76.7,75.5,30.05,North,32767,0.0,0.0,96,0.00,,,0.00,Wunderground v.1.15,2013-09-11 06:55:00,
2013-09-11 02:00:00,76.5,75.3,30.05,North,32767,0.0,0.0,96,0.00,,,0.00,Wunderground v.1.15,2013-09-11 07:00:00,
2013-09-11 02:05:00,76.3,75.1,30.05,North,32767,0.0,0.0,96,0.00,,,0.00,Wunderground v.1.15,2013-09-11 07:05:00,
2013-09-11 02:10:00,76.2,75.0,30.05,North,32767,0.0,0.0,96,0.00,,,0.00,Wunderground v.1.15,2013-09-11 07:10:00,
2013-09-11 02:15:00,76.0,74.8,30.05,North,32767,0.0,0.0,96,0.00,,,0.00,Wunderground v.1.15,2013-09-11 07:15:00,
2013-09-11 02:20:00,75.9,75.0,30.05,North,32767,0.0,0.0,97,0.00,,,0.00,Wunderground v.1.15,2013-09-11 07:20:00,
2013-09-11 02:25:00,75.8,74.9,30.05,North,32767,0.0,0.0,97,0.00,,,0.00,Wunderground v.1.15,2013-09-11 07:25:00,
2013-09-11 02:30:00,75.7,74.8,30.05,North,32767,0.0,0.0,97,0.00,,,0.00,Wunderground v.1.15,2013-09-11 07:30:00,
2013-09-11 02:35:00,75.6,74.7,30.05,North,32767,0.0,0.0,97,0.00,,,0.00,Wunderground v.1.15,2013-09-11 07:35:00,
2013-09-11 02:40:00,75.5,74.6,30.05,North,32767,0.0,0.0,97,0.00,,,0.00,Wunderground v.1.15,2013-09-11 07:40:00,
2013-09-11 02:45:00,75.4,74.5,30.05,North,32767,0.0,0.0,97,0.00,,,0.00,Wunderground v.1.15,2013-09-11 07:45:00,
2013-09-11 02:50:00,75.3,74.4,30.05,North,32767,0.0,0.0,97,0.00,,,0.00,Wunderground v.1.15,2013-09-11 07:50:00,
2013-09-11 02:55:00,75.2,74.3,30.05,North,32767,0.0,0.0,97,0.00,,,0.00,Wunderground v.1.15,2013-09-11 07:55:00,
2013-09-11 03:00:00,75.1,74.2,30.05,North,32767,0.0,0.0,97,0.00,,,0.00,Wunderground v.1.15,2013-09-11 08:00:00,
2013-09-11 03:05:00,75.0,74.1,30.05,North,32767,0.0,0.0,97,0.00,,,0.00,Wunderground v.1.15,2013-09-11 08:05:00,
2013-09-11 03:15:00,74.8,73.9,30.05,North,32767,0.0,0.0,97,0.00,,,0.00,Wunderground v.1.15,2013-09-11 08:15:00,
2013-09-11 03:20:00,74.7,73.8,30.05,North,32767,0.0,0.0,97,0.00,,,0.00,Wunderground v.1.15,2013-09-11 08:20:00,
2013-09-11 03:25:00,74.7,73.8,30.05,North,32767,0.0,0.0,97,0.00,,,0.00,Wunderground v.1.15,2013-09-11 08:25:00,
2013-09-11 03:30:00,74.6,73.7,30.05,North,32767,0.0,0.0,97,0.00,,,0.00,Wunderground v.1.15,2013-09-11 08:30:00,
2013-09-11 03:35:00,74.5,73.6,30.05,North,32767,0.0,0.0,97,0.00,,,0.00,Wunderground v.1.15,2013-09-11 08:35:00,
2013-09-11 03:40:00,74.4,73.8,30.05,North,32767,0.0,0.0,98,0.00,,,0.00,Wunderground v.1.15,2013-09-11 08:40:00,
2013-09-11 03:45:00,74.3,73.7,30.05,North,32767,0.0,0.0,98,0.00,,,0.00,Wunderground v.1.15,2013-09-11 08:45:00,
2013-09-11 03:50:00,74.2,73.6,30.05,North,32767,0.0,0.0,98,0.00,,,0.00,Wunderground v.1.15,2013-09-11 08:50:00,
2013-09-11 03:55:00,74.2,73.6,30.05,North,32767,0.0,0.0,98,0.00,,,0.00,Wunderground v.1.15,2013-09-11 08:55:00,
2013-09-11 04:00:00,74.1,73.5,30.05,North,32767,0.0,0.0,98,0.00,,,0.00,Wunderground v.1.15,2013-09-11 09:00:00,
2013-09-11 04:05:00,74.1,73.5,30.05,North,32767,0.0,0.0,98,0.00,,,0.00,Wunderground v.1.15,2013-09-11 09:05:00,
2013-09-11 04:10:00,74.0,73.4,30.05,North,32767,0.0,0.0,98,0.00,,,0.00,Wunderground v.1.15,2013-09-11 09:10:00,
2013-09-11 04:15:00,74.0,73.4,30.05,North,32767,0.0,0.0,98,0.00,,,0.00,Wunderground v.1.15,2013-09-11 09:15:00,
2013-09-11 04:20:00,73.9,73.3,30.05,North,32767,0.0,0.0,98,0.00,,,0.00,Wunderground v.1.15,2013-09-11 09:20:00,
2013-09-11 04:25:00,74.0,73.4,30.05,North,32767,0.0,0.0,98,0.00,,,0.00,Wunderground v.1.15,2013-09-11 09:25:00,
2013-09-11 04:30:00,73.9,73.3,30.05,North,32767,0.0,0.0,98,0.00,,,0.00,Wunderground v.1.15,2013-09-11 09:30:00,
2013-09-11 04:35:00,73.9,73.3,30.05,North,32767,0.0,0.0,98,0.00,,,0.00,Wunderground v.1.15,2013-09-11 09:35:00,
2013-09-11 04:40:00,73.9,73.3,30.05,North,32767,0.0,0.0,98,0.00,,,0.00,Wunderground v.1.15,2013-09-11 09:40:00,
2013-09-11 04:45:00,73.8,73.2,30.05,North,32767,0.0,0.0,98,0.00,,,0.00,Wunderground v.1.15,2013-09-11 09:45:00,
2013-09-11 04:50:00,73.8,73.2,30.05,North,32767,0.0,0.0,98,0.00,,,0.00,Wunderground v.1.15,2013-09-11 09:50:00,
2013-09-11 04:55:00,73.8,73.2,30.05,North,32767,0.0,0.0,98,0.00,,,0.00,Wunderground v.1.15,2013-09-11 09:55:00,
2013-09-11 05:05:00,73.8,73.2,30.05,North,32767,0.0,0.0,98,0.00,,,0.00,Wunderground v.1.15,2013-09-11 10:05:00,
2013-09-11 05:10:00,73.7,73.1,30.06,North,32767,0.0,0.0,98,0.00,,,0.00,Wunderground v.1.15,2013-09-11 10:10:00,
2013-09-11 05:15:00,73.7,73.1,30.06,North,32767,0.0,0.0,98,0.00,,,0.00,Wunderground v.1.15,2013-09-11 10:15:00,
2013-09-11 05:20:00,73.7,73.1,30.06,North,32767,0.0,0.0,98,0.00,,,0.00,Wunderground v.1.15,2013-09-11 10:20:00,
2013-09-11 05:25:00,73.6,73.0,30.06,North,32767,0.0,0.0,98,0.00,,,0.00,Wunderground v.1.15,2013-09-11 10:25:00,
2013-09-11 05:30:00,73.6,73.0,30.06,North,32767,0.0,0.0,98,0.00,,,0.00,Wunderground v.1.15,2013-09-11 10:30:00,
2013-09-11 05:35:00,73.5,72.9,30.06,North,32767,0.0,0.0,98,0.00,,,0.00,Wunderground v.1.15,2013-09-11 10:35:00,
2013-09-11 05:40:00,73.6,73.0,30.06,North,32767,0.0,0.0,98,0.00,,,0.00,Wunderground v.1.15,2013-09-11 10:40:00,
2013-09-11 05:45:00,73.6,73.0,30.07,North,32767,0.0,0.0,98,0.00,,,0.00,Wunderground v.1.15,2013-09-11 10:45:00,
2013-09-11 05:55:00,73.5,72.9,30.07,North,32767,0.0,0.0,98,0.00,,,0.00,Wunderground v.1.15,2013-09-11 10:55:00,
2013-09-11 06:00:00,73.5,72.9,30.07,North,32767,0.0,0.0,98,0.00,,,0.00,Wunderground v.1.15,2013-09-11 11:00:00,
2013-09-11 06:05:00,73.4,72.8,30.07,North,32767,0.0,0.0,98,0.00,,,0.00,Wunderground v.1.15,2013-09-11 11:05:00,
2013-09-11 06:10:00,73.3,72.7,30.07,North,32767,0.0,0.0,98,0.00,,,0.00,Wunderground v.1.15,2013-09-11 11:10:00,
2013-09-11 06:15:00,73.3,72.7,30.07,North,32767,0.0,0.0,98,0.00,,,0.00,Wunderground v.1.15,2013-09-11 11:15:00,
2013-09-11 06:20:00,73.2,72.6,30.07,North,32767,0.0,0.0,98,0.00,,,0.00,Wunderground v.1.15,2013-09-11 11:20:00,
2013-09-11 06:25:00,73.1,72.5,30.07,North,32767,0.0,0.0,98,0.00,,,0.00,Wunderground v.1.15,2013-09-11 11:25:00,
2013-09-11 06:30:00,73.1,72.5,30.07,North,32767,0.0,0.0,98,0.00,,,0.00,Wunderground v.1.15,2013-09-11 11:30:00,
2013-09-11 06:35:00,73.0,72.4,30.07,North,32767,0.0,0.0,98,0.00,,,0.00,Wunderground v.1.15,2013-09-11 11:35:00,
2013-09-11 06:40:00,72.9,72.3,30.07,North,32767,0.0,0.0,98,0.00,,,0.00,Wunderground v.1.15,2013-09-11 11:40:00,
2013-09-11 06:45:00,72.9,72.3,30.07,North,32767,0.0,0.0,98,0.00,,,0.00,Wunderground v.1.15,2013-09-11 11:45:00,
2013-09-11 06:50:00,72.9,72.3,30.08,North,32767,0.0,0.0,98,0.00,,,0.00,Wunderground v.1.15,2013-09-11 11:50:00,
2013-09-11 06:55:00,72.9,72.3,30.08,North,32767,0.0,0.0,98,0.00,,,0.00,Wunderground v.1.15,2013-09-11 11:55:00,
2013-09-11 07:00:00,72.9,72.3,30.08,North,32767,0.0,0.0,98,0.00,,,0.00,Wunderground v.1.15,2013-09-11 12:00:00,
2013-09-11 07:05:00,73.1,72.5,30.08,North,32767,0.0,0.0,98,0.00,,,0.00,Wunderground v.1.15,2013-09-11 12:05:00,
2013-09-11 07:10:00,73.3,72.7,30.08,North,32767,0.0,0.0,98,0.00,,,0.00,Wunderground v.1.15,2013-09-11 12:10:00,
2013-09-11 07:15:00,73.5,72.9,30.08,North,32767,0.0,0.0,98,0.00,,,0.00,Wunderground v.1.15,2013-09-11 12:15:00,
2013-09-11 07:20:00,73.7,73.1,30.09,North,32767,0.0,0.0,98,0.00,,,0.00,Wunderground v.1.15,2013-09-11 12:20:00,
2013-09-11 07:25:00,74.0,73.4,30.09,North,32767,0.0,0.0,98,0.00,,,0.00,Wunderground v.1.15,2013-09-11 12:25:00,
2013-09-11 07:30:00,74.3,73.7,30.09,North,32767,0.0,0.0,98,0.00,,,0.00,Wunderground v.1.15,2013-09-11 12:30:00,
2013-09-11 07:35:00,74.7,74.1,30.09,North,32767,0.0,0.0,98,0.00,,,0.00,Wunderground v.1.15,2013-09-11 12:35:00,
2013-09-11 07:40:00,75.0,74.4,30.09,North,32767,0.0,0.0,98,0.00,,,0.00,Wunderground v.1.15,2013-09-11 12:40:00,
2013-09-11 07:45:00,75.4,74.5,30.09,North,32767,0.0,0.0,97,0.00,,,0.00,Wunderground v.1.15,2013-09-11 12:45:00,
2013-09-11 07:50:00,75.7,75.1,30.09,North,32767,0.0,0.0,98,0.00,,,0.00,Wunderground v.1.15,2013-09-11 12:50:00,
2013-09-11 07:55:00,76.0,75.1,30.09,North,32767,0.0,0.0,97,0.00,,,0.00,Wunderground v.1.15,2013-09-11 12:55:00,
2013-09-11 08:00:00,76.3,75.4,30.09,North,32767,0.0,0.0,97,0.00,,,0.00,Wunderground v.1.15,2013-09-11 13:00:00,
2013-09-11 08:05:00,76.8,75.9,30.09,North,32767,0.0,0.0,97,0.00,,,0.00,Wunderground v.1.15,2013-09-11 13:05:00,
2013-09-11 08:15:00,77.3,75.8,30.09,North,32767,0.0,0.0,95,0.00,,,0.00,Wunderground v.1.15,2013-09-11 13:15:00,
2013-09-11 08:20:00,77.6,76.1,30.09,North,32767,0.0,0.0,95,0.00,,,0.00,Wunderground v.1.15,2013-09-11 13:20:00,
2013-09-11 08:25:00,78.0,76.1,30.09,North,32767,0.0,0.0,94,0.00,,,0.00,Wunderground v.1.15,2013-09-11 13:25:00,
2013-09-11 08:30:00,78.3,76.4,30.09,North,32767,0.0,0.0,94,0.00,,,0.00,Wunderground v.1.15,2013-09-11 13:30:00,
2013-09-11 08:35:00,78.7,76.8,30.09,North,32767,0.0,0.0,94,0.00,,,0.00,Wunderground v.1.15,2013-09-11 13:35:00,
2013-09-11 08:40:00,79.1,76.9,30.09,North,32767,0.0,0.0,93,0.00,,,0.00,Wunderground v.1.15,2013-09-11 13:40:00,
2013-09-11 08:45:00,79.6,77.4,30.09,North,32767,0.0,0.0,93,0.00,,,0.00,Wunderground v.1.15,2013-09-11 13:45:00,
2013-09-11 08:50:00,80.0,77.5,30.09,North,32767,0.0,0.0,92,0.00,,,0.00,Wunderground v.1.15,2013-09-11 13:50:00,
2013-09-11 08:55:00,80.5,78.0,30.09,North,32767,0.0,0.0,92,0.00,,,0.00,Wunderground v.1.15,2013-09-11 13:55:00,
2013-09-11 09:00:00,81.1,78.6,30.09,North,32767,0.0,0.0,92,0.00,,,0.00,Wunderground v.1.15,2013-09-11 14:00:00,
2013-09-11 09:05:00,81.5,78.3,30.09,North,32767,0.0,0.0,90,0.00,,,0.00,Wunderground v.1.15,2013-09-11 14:05:00,
2013-09-11 09:10:00,81.8,78.6,30.09,North,32767,0.0,0.0,90,0.00,,,0.00,Wunderground v.1.15,2013-09-11 14:10:00,
2013-09-11 09:15:00,82.2,79.0,30.10,North,32767,0.0,0.0,90,0.00,,,0.00,Wunderground v.1.15,2013-09-11 14:15:00,
2013-09-11 09:20:00,82.5,78.9,30.09,North,32767,0.0,0.0,89,0.00,,,0.00,Wunderground v.1.15,2013-09-11 14:20:00,
2013-09-11 09:25:00,82.8,79.2,30.10,North,32767,0.0,0.0,89,0.00,,,0.00,Wunderground v.1.15,2013-09-11 14:25:00,
2013-09-11 09:30:00,82.9,79.3,30.10,North,32767,0.0,0.0,89,0.00,,,0.00,Wunderground v.1.15,2013-09-11 14:30:00,
2013-09-11 09:35:00,82.9,79.3,30.10,North,32767,0.0,0.0,89,0.00,,,0.00,Wunderground v.1.15,2013-09-11 14:35:00,
2013-09-11 09:40:00,83.2,79.6,30.10,North,32767,0.0,0.0,89,0.00,,,0.00,Wunderground v.1.15,2013-09-11 14:40:00,
2013-09-11 09:45:00,83.6,80.0,30.10,North,32767,0.0,0.0,89,0.00,,,0.00,Wunderground v.1.15,2013-09-11 14:45:00,
2013-09-11 09:50:00,84.2,80.6,30.10,North,32767,0.0,0.0,89,0.00,,,0.00,Wunderground v.1.15,2013-09-11 14:50:00,
2013-09-11 09:55:00,84.2,79.9,30.10,North,32767,0.0,0.0,87,0.00,,,0.00,Wunderground v.1.15,2013-09-11 14:55:00,
2013-09-11 10:00:00,84.4,80.1,30.10,North,32767,0.0,0.0,87,0.00,,,0.00,Wunderground v.1.15,2013-09-11 15:00:00,
2013-09-11 10:05:00,84.6,79.9,30.10,North,32767,0.0,0.0,86,0.00,,,0.00,Wunderground v.1.15,2013-09-11 15:05:00,
2013-09-11 10:10:00,84.6,79.9,30.10,North,32767,0.0,0.0,86,0.00,,,0.00,Wunderground v.1.15,2013-09-11 15:10:00,
2013-09-11 10:15:00,84.6,79.6,30.10,North,32767,0.0,0.0,85,0.00,,,0.00,Wunderground v.1.15,2013-09-11 15:15:00,
2013-09-11 10:20:00,84.6,79.9,30.10,North,32767,0.0,0.0,86,0.00,,,0.00,Wunderground v.1.15,2013-09-11 15:20:00,
2013-09-11 10:25:00,84.8,80.1,30.10,North,32767,0.0,0.0,86,0.00,,,0.00,Wunderground v.1.15,2013-09-11 15:25:00,
2013-09-11 10:30:00,85.1,79.7,30.10,North,32767,0.0,0.0,84,0.00,,,0.00,Wunderground v.1.15,2013-09-11 15:30:00,
2013-09-11 10:35:00,85.3,79.5,30.10,North,32767,0.0,0.0,83,0.00,,,0.00,Wunderground v.1.15,2013-09-11 15:35:00,
2013-09-11 10:40:00,85.4,80.0,30.10,North,32767,0.0,0.0,84,0.00,,,0.00,Wunderground v.1.15,2013-09-11 15:40:00,
2013-09-11 10:50:00,85.9,80.1,30.09,North,32767,0.0,0.0,83,0.00,,,0.00,Wunderground v.1.15,2013-09-11 15:50:00,
2013-09-11 10:55:00,86.2,80.8,30.09,North,32767,0.0,0.0,84,0.00,,,0.00,Wunderground v.1.15,2013-09-11 15:55:00,
2013-09-11 11:00:00,86.2,78.9,30.09,North,32767,0.0,0.0,79,0.00,,,0.00,Wunderground v.1.15,2013-09-11 16:00:00,
2013-09-11 11:05:00,86.2,79.7,30.09,North,32767,0.0,0.0,81,0.00,,,0.00,Wunderground v.1.15,2013-09-11 16:05:00,
2013-09-11 11:10:00,86.2,79.7,30.09,North,32767,0.0,0.0,81,0.00,,,0.00,Wunderground v.1.15,2013-09-11 16:10:00,
2013-09-11 11:15:00,86.3,78.6,30.09,North,32767,0.0,0.0,78,0.00,,,0.00,Wunderground v.1.15,2013-09-11 16:15:00,
2013-09-11 11:20:00,86.6,79.3,30.09,North,32767,0.0,0.0,79,0.00,,,0.00,Wunderground v.1.15,2013-09-11 16:20:00,
2013-09-11 11:25:00,86.9,79.6,30.09,North,32767,0.0,0.0,79,0.00,,,0.00,Wunderground v.1.15,2013-09-11 16:25:00,
2013-09-11 11:30:00,87.1,79.4,30.09,North,32767,0.0,0.0,78,0.00,,,0.00,Wunderground v.1.15,2013-09-11 16:30:00,
2013-09-11 11:35:00,87.5,79.4,30.09,North,32767,0.0,0.0,77,0.00,,,0.00,Wunderground v.1.15,2013-09-11 16:35:00,
2013-09-11 11:40:00,88.1,80.0,30.09,North,32767,0.0,0.0,77,0.00,,,0.00,Wunderground v.1.15,2013-09-11 16:40:00,
2013-09-11 11:45:00,87.9,78.6,30.09,North,32767,0.0,0.0,74,0.00,,,0.00,Wunderground v.1.15,2013-09-11 16:45:00,
2013-09-11 11:50:00,87.8,79.3,30.09,North,32767,0.0,0.0,76,0.00,,,0.00,Wunderground v.1.15,2013-09-11 16:50:00,
2013-09-11 11:55:00,87.8,78.5,30.09,North,32767,0.0,0.0,74,0.00,,,0.00,Wunderground v.1.15,2013-09-11 16:55:00,
2013-09-11 12:00:00,88.0,80.7,30.09,North,32767,0.0,0.0,79,0.00,,,0.00,Wunderground v.1.15,2013-09-11 17:00:00,
2013-09-11 12:05:00,88.1,79.2,30.09,North,32767,0.0,0.0,75,0.00,,,0.00,Wunderground v.1.15,2013-09-11 17:05:00,
2013-09-11 12:15:00,88.5,80.0,30.09,North,32767,0.0,0.0,76,0.00,,,0.00,Wunderground v.1.15,2013-09-11 17:15:00,
2013-09-11 12:20:00,88.7,79.3,30.09,North,32767,0.0,0.0,74,0.00,,,0.00,Wunderground v.1.15,2013-09-11 17:20:00,
2013-09-11 12:25:00,88.6,79.7,30.09,North,32767,0.0,0.0,75,0.00,,,0.00,Wunderground v.1.15,2013-09-11 17:25:00,
2013-09-11 12:30:00,88.4,79.5,30.09,North,32767,0.0,0.0,75,0.00,,,0.00,Wunderground v.1.15,2013-09-11 17:30:00,
2013-09-11 12:35:00,88.1,78.8,30.09,North,32767,0.0,0.0,74,0.00,,,0.00,Wunderground v.1.15,2013-09-11 17:35:00,
2013-09-11 12:40:00,88.2,80.1,30.08,North,32767,0.0,0.0,77,0.00,,,0.00,Wunderground v.1.15,2013-09-11 17:40:00,
2013-09-11 12:45:00,88.2,78.9,30.09,North,32767,0.0,0.0,74,0.00,,,0.00,Wunderground v.1.15,2013-09-11 17:45:00,
2013-09-11 12:50:00,88.2,79.3,30.08,North,32767,0.0,0.0,75,0.00,,,0.00,Wunderground v.1.15,2013-09-11 17:50:00,
2013-09-11 12:55:00,87.9,78.2,30.08,North,32767,0.0,0.0,73,0.00,,,0.00,Wunderground v.1.15,2013-09-11 17:55:00,
2013-09-11 13:00:00,88.0,79.5,30.08,North,32767,0.0,0.0,76,0.00,,,0.00,Wunderground v.1.15,2013-09-11 18:00:00,
2013-09-11 13:05:00,88.2,80.1,30.08,North,32767,0.0,0.0,77,0.00,,,0.00,Wunderground v.1.15,2013-09-11 18:05:00,
2013-09-11 13:10:00,88.6,79.7,30.08,North,32767,0.0,0.0,75,0.00,,,0.00,Wunderground v.1.15,2013-09-11 18:10:00,
2013-09-11 13:15:00,89.0,78.4,30.07,North,32767,0.0,0.0,71,0.00,,,0.00,Wunderground v.1.15,2013-09-11 18:15:00,
2013-09-11 13:20:00,89.3,79.9,30.07,North,32767,0.0,0.0,74,0.00,,,0.00,Wunderground v.1.15,2013-09-11 18:20:00,
2013-09-11 13:25:00,88.7,78.5,30.07,North,32767,0.0,0.0,72,0.00,,,0.00,Wunderground v.1.15,2013-09-11 18:25:00,
2013-09-11 13:30:00,88.4,78.6,30.07,North,32767,0.0,0.0,73,0.00,,,0.00,Wunderground v.1.15,2013-09-11 18:30:00,
2013-09-11 13:35:00,88.6,79.7,30.06,North,32767,0.0,0.0,75,0.00,,,0.00,Wunderground v.1.15,2013-09-11 18:35:00,
2013-09-11 13:40:00,88.6,79.7,30.06,North,32767,0.0,0.0,75,0.00,,,0.00,Wunderground v.1.15,2013-09-11 18:40:00,
2013-09-11 13:45:00,88.6,78.8,30.06,North,32767,0.0,0.0,73,0.00,,,0.00,Wunderground v.1.15,2013-09-11 18:45:00,
2013-09-11 13:50:00,89.0,79.2,30.06,North,32767,0.0,0.0,73,0.00,,,0.00,Wunderground v.1.15,2013-09-11 18:50:00,
2013-09-11 13:55:00,88.9,79.9,30.06,North,32767,0.0,0.0,75,0.00,,,0.00,Wunderground v.1.15,2013-09-11 18:55:00,
2013-09-11 14:00:00,88.9,78.7,30.06,North,32767,0.0,0.0,72,0.00,,,0.00,Wunderground v.1.15,2013-09-11 19:00:00,
2013-09-11 14:05:00,88.6,78.4,30.06,North,32767,0.0,0.0,72,0.00,,,0.00,Wunderground v.1.15,2013-09-11 19:05:00,
2013-09-11 14:10:00,88.9,79.1,30.06,North,32767,0.0,0.0,73,0.00,,,0.00,Wunderground v.1.15,2013-09-11 19:10:00,
2013-09-11 14:15:00,89.0,77.9,30.05,North,32767,0.0,0.0,70,0.00,,,0.00,Wunderground v.1.15,2013-09-11 19:15:00,
2013-09-11 14:20:00,88.9,78.3,30.06,North,32767,0.0,0.0,71,0.00,,,0.00,Wunderground v.1.15,2013-09-11 19:20:00,
2013-09-11 14:25:00,88.8,78.6,30.05,North,32767,0.0,0.0,72,0.00,,,0.00,Wunderground v.1.15,2013-09-11 19:25:00,
2013-09-11 14:30:00,89.2,80.6,30.05,North,32767,0.0,0.0,76,0.00,,,0.00,Wunderground v.1.15,2013-09-11 19:30:00,
2013-09-11 14:35:00,88.9,81.1,30.05,North,32767,0.0,0.0,78,0.00,,,0.00,Wunderground v.1.15,2013-09-11 19:35:00,
2013-09-11 14:40:00,88.6,80.5,30.05,North,32767,0.0,0.0,77,0.00,,,0.00,Wunderground v.1.15,2013-09-11 19:40:00,
2013-09-11 14:45:00,88.5,81.1,30.05,North,32767,0.0,0.0,79,0.00,,,0.00,Wunderground v.1.15,2013-09-11 19:45:00,
2013-09-11 14:50:00,88.0,81.0,30.05,North,32767,0.0,0.0,80,0.00,,,0.00,Wunderground v.1.15,2013-09-11 19:50:00,
2013-09-11 14:55:00,87.9,80.6,30.05,North,32767,0.0,0.0,79,0.00,,,0.00,Wunderground v.1.15,2013-09-11 19:55:00,
2013-09-11 15:00:00,87.8,80.5,30.05,North,32767,0.0,0.0,79,0.00,,,0.00,Wunderground v.1.15,2013-09-11 20:00:00,
2013-09-11 15:05:00,87.9,81.0,30.04,North,32767,0.0,0.0,80,0.00,,,0.00,Wunderground v.1.15,2013-09-11 20:05:00,
2013-09-11 15:10:00,88.1,80.4,30.04,North,32767,0.0,0.0,78,0.00,,,0.00,Wunderground v.1.15,2013-09-11 20:10:00,
2013-09-11 15:15:00,88.2,80.1,30.04,North,32767,0.0,0.0,77,0.00,,,0.00,Wunderground v.1.15,2013-09-11 20:15:00,
2013-09-11 15:20:00,87.8,80.1,30.04,North,32767,0.0,0.0,78,0.00,,,0.00,Wunderground v.1.15,2013-09-11 20:20:00,
2013-09-11 15:25:00,87.7,80.4,30.04,North,32767,0.0,0.0,79,0.00,,,0.00,Wunderground v.1.15,2013-09-11 20:25:00,
2013-09-11 15:30:00,87.8,80.5,30.04,North,32767,0.0,0.0,79,0.00,,,0.00,Wunderground v.1.15,2013-09-11 20:30:00,
2013-09-11 15:35:00,87.7,80.4,30.04,North,32767,0.0,0.0,79,0.00,,,0.00,Wunderground v.1.15,2013-09-11 20:35:00,
2013-09-11 15:40:00,87.6,80.3,30.04,North,32767,0.0,0.0,79,0.00,,,0.00,Wunderground v.1.15,2013-09-11 20:40:00,
2013-09-11 15:45:00,87.5,80.2,30.04,North,32767,0.0,0.0,79,0.00,,,0.00,Wunderground v.1.15,2013-09-11 20:45:00,
2013-09-11 15:50:00,87.4,80.5,30.03,North,32767,0.0,0.0,80,0.00,,,0.00,Wunderground v.1.15,2013-09-11 20:50:00,
2013-09-11 15:55:00,87.3,80.0,30.03,North,32767,0.0,0.0,79,0.00,,,0.00,Wunderground v.1.15,2013-09-11 20:55:00,
2013-09-11 16:00:00,87.1,79.8,30.03,North,32767,0.0,0.0,79,0.00,,,0.00,Wunderground v.1.15,2013-09-11 21:00:00,
2013-09-11 16:05:00,87.0,79.3,30.03,North,32767,0.0,0.0,78,0.00,,,0.00,Wunderground v.1.15,2013-09-11 21:05:00,
2013-09-11 16:10:00,87.1,79.4,30.03,North,32767,0.0,0.0,78,0.00,,,0.00,Wunderground v.1.15,2013-09-11 21:10:00,
2013-09-11 16:15:00,86.9,78.8,30.03,North,32767,0.0,0.0,77,0.00,,,0.00,Wunderground v.1.15,2013-09-11 21:15:00,
2013-09-11 16:20:00,87.0,79.7,30.03,North,32767,0.0,0.0,79,0.00,,,0.00,Wunderground v.1.15,2013-09-11 21:20:00,
2013-09-11 16:25:00,87.0,79.7,30.03,North,32767,0.0,0.0,79,0.00,,,0.00,Wunderground v.1.15,2013-09-11 21:25:00,
2013-09-11 16:30:00,86.8,79.1,30.03,North,32767,0.0,0.0,78,0.00,,,0.00,Wunderground v.1.15,2013-09-11 21:30:00,
2013-09-11 16:35:00,86.8,79.5,30.03,North,32767,0.0,0.0,79,0.00,,,0.00,Wunderground v.1.15,2013-09-11 21:35:00,
2013-09-11 16:40:00,86.9,79.2,30.03,North,32767,0.0,0.0,78,0.00,,,0.00,Wunderground v.1.15,2013-09-11 21:40:00,
2013-09-11 16:45:00,86.8,78.3,30.03,North,32767,0.0,0.0,76,0.00,,,0.00,Wunderground v.1.15,2013-09-11 21:45:00,
2013-09-11 16:50:00,86.8,77.5,30.03,North,32767,0.0,0.0,74,0.00,,,0.00,Wunderground v.1.15,2013-09-11 21:50:00,
2013-09-11 16:55:00,86.7,77.0,30.02,North,32767,0.0,0.0,73,0.00,,,0.00,Wunderground v.1.15,2013-09-11 21:55:00,
2013-09-11 17:00:00,86.7,77.0,30.02,North,32767,0.0,0.0,73,0.00,,,0.00,Wunderground v.1.15,2013-09-11 22:00:00,
2013-09-11 17:05:00,86.8,76.3,30.03,North,32767,0.0,0.0,71,0.00,,,0.00,Wunderground v.1.15,2013-09-11 22:05:00,
2013-09-11 17:10:00,86.7,75.7,30.02,North,32767,0.0,0.0,70,0.00,,,0.00,Wunderground v.1.15,2013-09-11 22:10:00,
2013-09-11 17:15:00,86.5,75.5,30.02,North,32767,0.0,0.0,70,0.00,,,0.00,Wunderground v.1.15,2013-09-11 22:15:00,
2013-09-11 17:20:00,86.5,76.0,30.02,North,32767,0.0,0.0,71,0.00,,,0.00,Wunderground v.1.15,2013-09-11 22:20:00,
2013-09-11 17:25:00,86.4,76.3,30.02,North,32767,0.0,0.0,72,0.00,,,0.00,Wunderground v.1.15,2013-09-11 22:25:00,
2013-09-11 17:30:00,86.4,76.3,30.02,North,32767,0.0,0.0,72,0.00,,,0.00,Wunderground v.1.15,2013-09-11 22:30:00,
2013-09-11 17:35:00,86.3,75.4,30.02,North,32767,0.0,0.0,70,0.00,,,0.00,Wunderground v.1.15,2013-09-11 22:35:00,
2013-09-11 17:40:00,86.2,76.5,30.02,North,32767,0.0,0.0,73,0.00,,,0.00,Wunderground v.1.15,2013-09-11 22:40:00,
2013-09-11 17:45:00,86.0,75.9,30.02,North,32767,0.0,0.0,72,0.00,,,0.00,Wunderground v.1.15,2013-09-11 22:45:00,
2013-09-11 17:50:00,85.8,75.7,30.02,North,32767,0.0,0.0,72,0.00,,,0.00,Wunderground v.1.15,2013-09-11 22:50:00,
2013-09-11 17:55:00,85.7,76.0,30.02,North,32767,0.0,0.0,73,0.00,,,0.00,Wunderground v.1.15,2013-09-11 22:55:00,
2013-09-11 18:00:00,85.5,75.4,30.02,North,32767,0.0,0.0,72,0.00,,,0.00,Wunderground v.1.15,2013-09-11 23:00:00,
2013-09-11 18:05:00,85.3,75.7,30.02,North,32767,0.0,0.0,73,0.00,,,0.00,Wunderground v.1.15,2013-09-11 23:05:00,
2013-09-11 18:10:00,85.1,75.9,30.02,North,32767,0.0,0.0,74,0.00,,,0.00,Wunderground v.1.15,2013-09-11 23:10:00,
2013-09-11 18:15:00,84.9,75.7,30.02,North,32767,0.0,0.0,74,0.00,,,0.00,Wunderground v.1.15,2013-09-11 23:15:00,
2013-09-11 18:25:00,84.8,75.6,30.02,North,32767,0.0,0.0,74,0.00,,,0.00,Wunderground v.1.15,2013-09-11 23:25:00,
2013-09-11 18:30:00,84.7,75.9,30.02,North,32767,0.0,0.0,75,0.00,,,0.00,Wunderground v.1.15,2013-09-11 23:30:00,
2013-09-11 18:35:00,84.5,75.7,30.01,North,32767,0.0,0.0,75,0.00,,,0.00,Wunderground v.1.15,2013-09-11 23:35:00,
2013-09-11 18:40:00,84.3,75.5,30.01,North,32767,0.0,0.0,75,0.00,,,0.00,Wunderground v.1.15,2013-09-11 23:40:00,
2013-09-11 18:45:00,84.1,75.7,30.02,North,32767,0.0,0.0,76,0.00,,,0.00,Wunderground v.1.15,2013-09-11 23:45:00,
2013-09-11 18:50:00,84.1,75.7,30.02,North,32767,0.0,0.0,76,0.00,,,0.00,Wunderground v.1.15,2013-09-11 23:50:00,
2013-09-11 19:00:00,83.7,74.9,30.01,North,32767,0.0,0.0,75,0.00,,,0.00,Wunderground v.1.15,2013-09-12 00:00:00,
2013-09-11 19:05:00,83.6,75.2,30.01,North,32767,0.0,0.0,76,0.00,,,0.00,Wunderground v.1.15,2013-09-12 00:05:00,
2013-09-11 19:10:00,83.5,75.1,30.02,North,32767,0.0,0.0,76,0.00,,,0.00,Wunderground v.1.15,2013-09-12 00:10:00,
2013-09-11 19:15:00,83.4,75.0,30.02,North,32767,0.0,0.0,76,0.00,,,0.00,Wunderground v.1.15,2013-09-12 00:15:00,
2013-09-11 19:20:00,83.2,75.2,30.02,North,32767,0.0,0.0,77,0.00,,,0.00,Wunderground v.1.15,2013-09-12 00:20:00,
2013-09-11 19:25:00,83.1,75.1,30.02,North,32767,0.0,0.0,77,0.00,,,0.00,Wunderground v.1.15,2013-09-12 00:25:00,
2013-09-11 19:30:00,83.0,75.4,30.02,North,32767,0.0,0.0,78,0.00,,,0.00,Wunderground v.1.15,2013-09-12 00:30:00,
2013-09-11 19:35:00,82.9,74.9,30.02,North,32767,0.0,0.0,77,0.00,,,0.00,Wunderground v.1.15,2013-09-12 00:35:00,
2013-09-11 19:40:00,82.8,75.2,30.02,North,32767,0.0,0.0,78,0.00,,,0.00,Wunderground v.1.15,2013-09-12 00:40:00,
2013-09-11 19:45:00,82.8,75.2,30.02,North,32767,0.0,0.0,78,0.00,,,0.00,Wunderground v.1.15,2013-09-12 00:45:00,
2013-09-11 19:50:00,82.8,75.2,30.02,North,32767,0.0,0.0,78,0.00,,,0.00,Wunderground v.1.15,2013-09-12 00:50:00,
2013-09-11 19:55:00,82.8,74.8,30.02,North,32767,0.0,0.0,77,0.00,,,0.00,Wunderground v.1.15,2013-09-12 00:55:00,
2013-09-11 20:00:00,82.7,75.1,30.02,North,32767,0.0,0.0,78,0.00,,,0.00,Wunderground v.1.15,2013-09-12 01:00:00,
2013-09-11 20:05:00,82.7,75.1,30.02,North,32767,0.0,0.0,78,0.00,,,0.00,Wunderground v.1.15,2013-09-12 01:05:00,
2013-09-11 20:10:00,82.7,75.1,30.02,North,32767,0.0,0.0,78,0.00,,,0.00,Wunderground v.1.15,2013-09-12 01:10:00,
2013-09-11 20:15:00,82.6,75.0,30.02,North,32767,0.0,0.0,78,0.00,,,0.00,Wunderground v.1.15,2013-09-12 01:15:00,
2013-09-11 20:20:00,82.6,75.4,30.03,North,32767,0.0,0.0,79,0.00,,,0.00,Wunderground v.1.15,2013-09-12 01:20:00,
2013-09-11 20:30:00,82.5,75.3,30.03,North,32767,0.0,0.0,79,0.00,,,0.00,Wunderground v.1.15,2013-09-12 01:30:00,
2013-09-11 20:35:00,82.5,75.7,30.03,North,32767,0.0,0.0,80,0.00,,,0.00,Wunderground v.1.15,2013-09-12 01:35:00,
2013-09-11 20:40:00,82.5,75.7,30.03,North,32767,0.0,0.0,80,0.00,,,0.00,Wunderground v.1.15,2013-09-12 01:40:00,
2013-09-11 20:45:00,82.5,75.7,30.03,North,32767,0.0,0.0,80,0.00,,,0.00,Wunderground v.1.15,2013-09-12 01:45:00,
2013-09-11 20:50:00,82.5,75.7,30.04,North,32767,0.0,0.0,80,0.00,,,0.00,Wunderground v.1.15,2013-09-12 01:50:00,
2013-09-11 20:55:00,82.5,75.7,30.04,North,32767,0.0,0.0,80,0.00,,,0.00,Wunderground v.1.15,2013-09-12 01:55:00,
2013-09-11 21:05:00,82.6,76.2,30.04,North,32767,0.0,0.0,81,0.00,,,0.00,Wunderground v.1.15,2013-09-12 02:05:00,
2013-09-11 21:15:00,82.6,76.2,30.04,North,32767,0.0,0.0,81,0.00,,,0.00,Wunderground v.1.15,2013-09-12 02:15:00,
2013-09-11 21:20:00,82.6,76.2,30.04,North,32767,0.0,0.0,81,0.00,,,0.00,Wunderground v.1.15,2013-09-12 02:20:00,
2013-09-11 21:25:00,82.6,76.2,30.04,North,32767,0.0,0.0,81,0.00,,,0.00,Wunderground v.1.15,2013-09-12 02:25:00,
2013-09-11 21:30:00,82.6,76.2,30.04,North,32767,0.0,0.0,81,0.00,,,0.00,Wunderground v.1.15,2013-09-12 02:30:00,
2013-09-11 21:35:00,82.7,76.3,30.04,North,32767,0.0,0.0,81,0.00,,,0.00,Wunderground v.1.15,2013-09-12 02:35:00,
2013-09-11 21:40:00,82.7,76.3,30.04,North,32767,0.0,0.0,81,0.00,,,0.00,Wunderground v.1.15,2013-09-12 02:40:00,
2013-09-11 21:45:00,82.6,76.2,30.04,North,32767,0.0,0.0,81,0.00,,,0.00,Wunderground v.1.15,2013-09-12 02:45:00,
2013-09-11 21:50:00,82.6,76.2,30.04,North,32767,0.0,0.0,81,0.00,,,0.00,Wunderground v.1.15,2013-09-12 02:50:00,
2013-09-11 21:55:00,82.5,76.1,30.04,North,32767,0.0,0.0,81,0.00,,,0.00,Wunderground v.1.15,2013-09-12 02:55:00,
2013-09-11 22:00:00,82.5,76.1,30.05,North,32767,0.0,0.0,81,0.00,,,0.00,Wunderground v.1.15,2013-09-12 03:00:00,
2013-09-11 22:05:00,82.5,76.4,30.05,North,32767,0.0,0.0,82,0.00,,,0.00,Wunderground v.1.15,2013-09-12 03:05:00,
2013-09-11 22:10:00,82.4,76.3,30.05,North,32767,0.0,0.0,82,0.00,,,0.00,Wunderground v.1.15,2013-09-12 03:10:00,
2013-09-11 22:15:00,82.1,76.4,30.05,North,32767,0.0,0.0,83,0.00,,,0.00,Wunderground v.1.15,2013-09-12 03:15:00,
2013-09-11 22:20:00,81.8,76.5,30.04,North,32767,0.0,0.0,84,0.00,,,0.00,Wunderground v.1.15,2013-09-12 03:20:00,
2013-09-11 22:25:00,81.3,76.4,30.04,North,32767,0.0,0.0,85,0.00,,,0.00,Wunderground v.1.15,2013-09-12 03:25:00,
2013-09-11 22:30:00,80.9,76.3,30.04,North,32767,0.0,0.0,86,0.00,,,0.00,Wunderground v.1.15,2013-09-12 03:30:00,
2013-09-11 22:35:00,80.5,76.3,30.05,North,32767,0.0,0.0,87,0.00,,,0.00,Wunderground v.1.15,2013-09-12 03:35:00,
2013-09-11 22:40:00,80.2,76.0,30.05,North,32767,0.0,0.0,87,0.00,,,0.00,Wunderground v.1.15,2013-09-12 03:40:00,
2013-09-11 22:45:00,79.9,76.0,30.05,North,32767,0.0,0.0,88,0.00,,,0.00,Wunderground v.1.15,2013-09-12 03:45:00,
2013-09-11 22:55:00,79.3,75.8,30.04,North,32767,0.0,0.0,89,0.00,,,0.00,Wunderground v.1.15,2013-09-12 03:55:00,
2013-09-11 23:00:00,79.1,75.9,30.04,North,32767,0.0,0.0,90,0.00,,,0.00,Wunderground v.1.15,2013-09-12 04:00:00,
2013-09-11 23:05:00,79.0,75.8,30.04,North,32767,0.0,0.0,90,0.00,,,0.00,Wunderground v.1.15,2013-09-12 04:05:00,
2013-09-11 23:10:00,78.9,76.0,30.04,North,32767,0.0,0.0,91,0.00,,,0.00,Wunderground v.1.15,2013-09-12 04:10:00,
2013-09-11 23:15:00,78.8,75.6,30.03,North,32767,0.0,0.0,90,0.00,,,0.00,Wunderground v.1.15,2013-09-12 04:15:00,
2013-09-11 23:20:00,78.7,75.8,30.04,North,32767,0.0,0.0,91,0.00,,,0.00,Wunderground v.1.15,2013-09-12 04:20:00,
2013-09-11 23:25:00,78.5,75.7,30.03,North,32767,0.0,0.0,91,0.00,,,0.00,Wunderground v.1.15,2013-09-12 04:25:00,
2013-09-11 23:30:00,78.4,75.6,30.03,North,32767,0.0,0.0,91,0.00,,,0.00,Wunderground v.1.15,2013-09-12 04:30:00,
2013-09-11 23:35:00,78.3,75.5,30.03,North,32767,0.0,0.0,91,0.00,,,0.00,Wunderground v.1.15,2013-09-12 04:35:00,
2013-09-11 23:40:00,78.1,75.6,30.03,North,32767,0.0,0.0,92,0.00,,,0.00,Wunderground v.1.15,2013-09-12 04:40:00,
2013-09-11 23:45:00,77.9,75.4,30.03,North,32767,0.0,0.0,92,0.00,,,0.00,Wunderground v.1.15,2013-09-12 04:45:00,
2013-09-11 23:50:00,77.7,75.2,30.03,North,32767,0.0,0.0,92,0.00,,,0.00,Wunderground v.1.15,2013-09-12 04:50:00,
2013-09-11 23:55:00,77.5,75.0,30.03,North,32767,0.0,0.0,92,0.00,,,0.00,Wunderground v.1.15,2013-09-12 04:55:00,